sensor_id;sensor_type;location;lat;lon;timestamp;temperature;humidity
31263;DHT22;17892;52.080;9.006;2023-02-25T00:01:23;5.30;99.90
31263;DHT22;17892;52.080;9.006;2023-02-25T00:03:51;5.30;99.90
31263;DHT22;17892;52.080;9.006;2023-02-25T00:06:18;5.30;99.90
31263;DHT22;17892;52.080;9.006;2023-02-25T00:08:47;5.30;99.90
31263;DHT22;17892;52.080;9.006;2023-02-25T00:11:15;5.30;99.90
31263;DHT22;17892;52.080;9.006;2023-02-25T00:13:42;5.30;99.90
31263;DHT22;17892;52.080;9.006;2023-02-25T00:16:09;5.30;99.90
31263;DHT22;17892;52.080;9.006;2023-02-25T00:18:35;5.40;99.90
31263;DHT22;17892;52.080;9.006;2023-02-25T00:21:04;5.30;99.90
31263;DHT22;17892;52.080;9.006;2023-02-25T00:23:31;5.30;99.90
31263;DHT22;17892;52.080;9.006;2023-02-25T00:26:03;5.30;99.90
31263;DHT22;17892;52.080;9.006;2023-02-25T00:28:32;5.30;99.90
31263;DHT22;17892;52.080;9.006;2023-02-25T00:30:58;5.30;99.90
31263;DHT22;17892;52.080;9.006;2023-02-25T00:33:23;5.40;99.90
31263;DHT22;17892;52.080;9.006;2023-02-25T00:35:49;5.40;99.90
31263;DHT22;17892;52.080;9.006;2023-02-25T00:38:16;5.40;99.90
31263;DHT22;17892;52.080;9.006;2023-02-25T00:40:42;5.40;99.90
31263;DHT22;17892;52.080;9.006;2023-02-25T00:43:08;5.40;99.90
31263;DHT22;17892;52.080;9.006;2023-02-25T00:45:34;5.40;99.90
31263;DHT22;17892;52.080;9.006;2023-02-25T00:47:59;5.40;99.90
31263;DHT22;17892;52.080;9.006;2023-02-25T00:50:25;5.40;99.90
31263;DHT22;17892;52.080;9.006;2023-02-25T00:52:51;5.40;99.90
31263;DHT22;17892;52.080;9.006;2023-02-25T00:55:17;5.40;99.90
31263;DHT22;17892;52.080;9.006;2023-02-25T00:57:43;5.40;99.90
31263;DHT22;17892;52.080;9.006;2023-02-25T01:00:09;5.40;99.90
31263;DHT22;17892;52.080;9.006;2023-02-25T01:02:41;5.30;99.90
31263;DHT22;17892;52.080;9.006;2023-02-25T01:05:10;5.40;99.90
31263;DHT22;17892;52.080;9.006;2023-02-25T01:07:37;5.30;99.90
31263;DHT22;17892;52.080;9.006;2023-02-25T01:10:03;5.30;99.90
31263;DHT22;17892;52.080;9.006;2023-02-25T01:12:29;5.40;99.90
31263;DHT22;17892;52.080;9.006;2023-02-25T01:14:56;5.30;99.90
31263;DHT22;17892;52.080;9.006;2023-02-25T01:17:21;5.40;99.90
31263;DHT22;17892;52.080;9.006;2023-02-25T01:19:47;5.40;99.90
31263;DHT22;17892;52.080;9.006;2023-02-25T01:22:13;5.50;99.90
31263;DHT22;17892;52.080;9.006;2023-02-25T01:24:40;5.40;99.90
31263;DHT22;17892;52.080;9.006;2023-02-25T01:27:06;5.30;99.90
31263;DHT22;17892;52.080;9.006;2023-02-25T01:29:35;5.30;99.90
31263;DHT22;17892;52.080;9.006;2023-02-25T01:32:05;5.30;99.90
31263;DHT22;17892;52.080;9.006;2023-02-25T01:34:32;5.30;99.90
31263;DHT22;17892;52.080;9.006;2023-02-25T01:36:58;5.30;99.90
31263;DHT22;17892;52.080;9.006;2023-02-25T01:39:25;5.40;99.90
31263;DHT22;17892;52.080;9.006;2023-02-25T01:41:52;5.40;99.90
31263;DHT22;17892;52.080;9.006;2023-02-25T01:44:24;5.40;99.90
31263;DHT22;17892;52.080;9.006;2023-02-25T01:46:54;5.40;99.90
31263;DHT22;17892;52.080;9.006;2023-02-25T01:49:26;5.40;99.90
31263;DHT22;17892;52.080;9.006;2023-02-25T01:52:40;5.40;99.90
31263;DHT22;17892;52.080;9.006;2023-02-25T01:54:51;5.40;99.90
31263;DHT22;17892;52.080;9.006;2023-02-25T01:57:20;5.40;99.90
31263;DHT22;17892;52.080;9.006;2023-02-25T01:59:47;5.40;99.90
31263;DHT22;17892;52.080;9.006;2023-02-25T02:02:17;5.40;99.90
31263;DHT22;17892;52.080;9.006;2023-02-25T02:04:45;5.40;99.90
31263;DHT22;17892;52.080;9.006;2023-02-25T02:07:16;5.40;99.90
31263;DHT22;17892;52.080;9.006;2023-02-25T02:09:43;5.40;99.90
31263;DHT22;17892;52.080;9.006;2023-02-25T02:12:23;5.40;99.90
31263;DHT22;17892;52.080;9.006;2023-02-25T02:14:49;5.40;99.90
31263;DHT22;17892;52.080;9.006;2023-02-25T02:18:00;5.40;99.90
31263;DHT22;17892;52.080;9.006;2023-02-25T02:20:52;5.40;99.90
31263;DHT22;17892;52.080;9.006;2023-02-25T02:26:57;5.40;99.90
31263;DHT22;17892;52.080;9.006;2023-02-25T02:29:30;5.40;99.90
31263;DHT22;17892;52.080;9.006;2023-02-25T02:35:26;5.40;99.90
31263;DHT22;17892;52.080;9.006;2023-02-25T02:38:36;5.40;99.90
31263;DHT22;17892;52.080;9.006;2023-02-25T02:41:28;5.40;99.90
31263;DHT22;17892;52.080;9.006;2023-02-25T02:44:02;5.40;99.90
31263;DHT22;17892;52.080;9.006;2023-02-25T02:46:36;5.30;99.90
31263;DHT22;17892;52.080;9.006;2023-02-25T02:49:27;5.30;99.90
31263;DHT22;17892;52.080;9.006;2023-02-25T02:52:03;5.30;99.90
31263;DHT22;17892;52.080;9.006;2023-02-25T02:54:34;5.30;99.90
31263;DHT22;17892;52.080;9.006;2023-02-25T02:57:02;5.30;99.90
31263;DHT22;17892;52.080;9.006;2023-02-25T02:59:33;5.30;99.90
31263;DHT22;17892;52.080;9.006;2023-02-25T03:02:15;5.30;99.90
31263;DHT22;17892;52.080;9.006;2023-02-25T03:04:45;5.30;99.90
31263;DHT22;17892;52.080;9.006;2023-02-25T03:07:14;5.20;99.90
31263;DHT22;17892;52.080;9.006;2023-02-25T03:09:46;5.20;99.90
31263;DHT22;17892;52.080;9.006;2023-02-25T03:12:14;5.20;99.90
31263;DHT22;17892;52.080;9.006;2023-02-25T03:14:40;5.20;99.90
31263;DHT22;17892;52.080;9.006;2023-02-25T03:17:14;5.20;99.90
31263;DHT22;17892;52.080;9.006;2023-02-25T03:22:38;5.30;99.90
31263;DHT22;17892;52.080;9.006;2023-02-25T03:25:22;5.30;99.90
31263;DHT22;17892;52.080;9.006;2023-02-25T03:28:50;5.30;99.90
31263;DHT22;17892;52.080;9.006;2023-02-25T03:31:21;5.30;99.90
31263;DHT22;17892;52.080;9.006;2023-02-25T03:33:56;5.20;99.90
31263;DHT22;17892;52.080;9.006;2023-02-25T03:36:31;5.20;99.90
31263;DHT22;17892;52.080;9.006;2023-02-25T03:39:09;5.20;99.90
31263;DHT22;17892;52.080;9.006;2023-02-25T03:41:41;5.30;99.90
31263;DHT22;17892;52.080;9.006;2023-02-25T03:44:12;5.30;99.90
31263;DHT22;17892;52.080;9.006;2023-02-25T03:46:42;5.30;99.90
31263;DHT22;17892;52.080;9.006;2023-02-25T03:49:13;5.30;99.90
31263;DHT22;17892;52.080;9.006;2023-02-25T03:51:43;5.30;99.90
31263;DHT22;17892;52.080;9.006;2023-02-25T03:54:12;5.30;99.90
31263;DHT22;17892;52.080;9.006;2023-02-25T03:56:47;5.30;99.90
31263;DHT22;17892;52.080;9.006;2023-02-25T03:59:14;5.30;99.90
31263;DHT22;17892;52.080;9.006;2023-02-25T04:01:41;5.40;99.90
31263;DHT22;17892;52.080;9.006;2023-02-25T04:04:09;5.40;99.90
31263;DHT22;17892;52.080;9.006;2023-02-25T04:06:35;5.40;99.90
31263;DHT22;17892;52.080;9.006;2023-02-25T04:09:00;5.40;99.90
31263;DHT22;17892;52.080;9.006;2023-02-25T04:11:26;5.40;99.90
31263;DHT22;17892;52.080;9.006;2023-02-25T04:13:52;5.40;99.90
31263;DHT22;17892;52.080;9.006;2023-02-25T04:16:18;5.40;99.90
31263;DHT22;17892;52.080;9.006;2023-02-25T04:18:44;5.40;99.90
31263;DHT22;17892;52.080;9.006;2023-02-25T04:21:24;5.40;99.90
31263;DHT22;17892;52.080;9.006;2023-02-25T04:23:52;5.40;99.90
31263;DHT22;17892;52.080;9.006;2023-02-25T04:26:18;5.40;99.90
31263;DHT22;17892;52.080;9.006;2023-02-25T04:28:43;5.40;99.90
31263;DHT22;17892;52.080;9.006;2023-02-25T04:31:09;5.40;99.90
31263;DHT22;17892;52.080;9.006;2023-02-25T04:33:35;5.40;99.90
31263;DHT22;17892;52.080;9.006;2023-02-25T04:36:00;5.40;99.90
31263;DHT22;17892;52.080;9.006;2023-02-25T04:38:26;5.40;99.90
31263;DHT22;17892;52.080;9.006;2023-02-25T04:40:52;5.40;99.90
31263;DHT22;17892;52.080;9.006;2023-02-25T04:43:17;5.40;99.90
31263;DHT22;17892;52.080;9.006;2023-02-25T04:45:43;5.40;99.90
31263;DHT22;17892;52.080;9.006;2023-02-25T04:48:09;5.40;99.90
31263;DHT22;17892;52.080;9.006;2023-02-25T04:50:34;5.40;99.90
31263;DHT22;17892;52.080;9.006;2023-02-25T04:53:00;5.40;99.90
31263;DHT22;17892;52.080;9.006;2023-02-25T04:55:26;5.40;99.90
31263;DHT22;17892;52.080;9.006;2023-02-25T04:57:52;5.40;99.90
31263;DHT22;17892;52.080;9.006;2023-02-25T05:00:20;5.30;99.90
31263;DHT22;17892;52.080;9.006;2023-02-25T05:02:49;5.30;99.90
31263;DHT22;17892;52.080;9.006;2023-02-25T05:05:15;5.20;99.90
31263;DHT22;17892;52.080;9.006;2023-02-25T05:07:42;5.10;99.90
31263;DHT22;17892;52.080;9.006;2023-02-25T05:10:09;5.00;99.90
31263;DHT22;17892;52.080;9.006;2023-02-25T05:12:36;4.90;99.90
31263;DHT22;17892;52.080;9.006;2023-02-25T05:15:03;4.80;99.90
31263;DHT22;17892;52.080;9.006;2023-02-25T05:17:31;4.70;99.90
31263;DHT22;17892;52.080;9.006;2023-02-25T05:19:57;4.60;99.90
31263;DHT22;17892;52.080;9.006;2023-02-25T05:22:23;4.60;99.90
31263;DHT22;17892;52.080;9.006;2023-02-25T05:24:50;4.50;99.90
31263;DHT22;17892;52.080;9.006;2023-02-25T05:27:15;4.50;99.90
31263;DHT22;17892;52.080;9.006;2023-02-25T05:29:41;4.50;99.90
31263;DHT22;17892;52.080;9.006;2023-02-25T05:32:07;4.50;99.90
31263;DHT22;17892;52.080;9.006;2023-02-25T05:34:33;4.50;99.90
31263;DHT22;17892;52.080;9.006;2023-02-25T05:36:59;4.50;99.90
31263;DHT22;17892;52.080;9.006;2023-02-25T05:39:25;4.50;99.90
31263;DHT22;17892;52.080;9.006;2023-02-25T05:41:51;4.50;99.90
31263;DHT22;17892;52.080;9.006;2023-02-25T05:44:17;4.50;99.90
31263;DHT22;17892;52.080;9.006;2023-02-25T05:46:43;4.50;99.90
31263;DHT22;17892;52.080;9.006;2023-02-25T05:49:09;4.60;99.90
31263;DHT22;17892;52.080;9.006;2023-02-25T05:51:35;4.50;99.90
31263;DHT22;17892;52.080;9.006;2023-02-25T05:54:00;4.60;99.90
31263;DHT22;17892;52.080;9.006;2023-02-25T05:56:26;4.60;99.90
31263;DHT22;17892;52.080;9.006;2023-02-25T05:58:53;4.60;99.90
31263;DHT22;17892;52.080;9.006;2023-02-25T06:01:25;4.60;99.90
31263;DHT22;17892;52.080;9.006;2023-02-25T06:03:53;4.60;99.90
31263;DHT22;17892;52.080;9.006;2023-02-25T06:06:23;4.60;99.90
31263;DHT22;17892;52.080;9.006;2023-02-25T06:08:51;4.60;99.90
31263;DHT22;17892;52.080;9.006;2023-02-25T06:11:20;4.60;99.90
31263;DHT22;17892;52.080;9.006;2023-02-25T06:13:50;4.60;99.90
31263;DHT22;17892;52.080;9.006;2023-02-25T06:16:17;4.60;99.90
31263;DHT22;17892;52.080;9.006;2023-02-25T06:18:43;4.60;99.90
31263;DHT22;17892;52.080;9.006;2023-02-25T06:21:10;4.50;99.90
31263;DHT22;17892;52.080;9.006;2023-02-25T06:23:39;4.50;99.90
31263;DHT22;17892;52.080;9.006;2023-02-25T06:26:07;4.50;99.90
31263;DHT22;17892;52.080;9.006;2023-02-25T06:28:34;4.40;99.90
31263;DHT22;17892;52.080;9.006;2023-02-25T06:31:01;4.40;99.90
31263;DHT22;17892;52.080;9.006;2023-02-25T06:33:29;4.40;99.90
31263;DHT22;17892;52.080;9.006;2023-02-25T06:35:55;4.40;99.90
31263;DHT22;17892;52.080;9.006;2023-02-25T06:38:21;4.40;99.90
31263;DHT22;17892;52.080;9.006;2023-02-25T06:40:48;4.40;99.90
31263;DHT22;17892;52.080;9.006;2023-02-25T06:43:15;4.40;99.90
31263;DHT22;17892;52.080;9.006;2023-02-25T06:45:41;4.40;99.90
31263;DHT22;17892;52.080;9.006;2023-02-25T06:48:07;4.50;99.90
31263;DHT22;17892;52.080;9.006;2023-02-25T06:50:33;4.40;99.90
31263;DHT22;17892;52.080;9.006;2023-02-25T06:52:59;4.40;99.90
31263;DHT22;17892;52.080;9.006;2023-02-25T06:55:25;4.50;99.90
31263;DHT22;17892;52.080;9.006;2023-02-25T06:57:51;4.50;99.90
31263;DHT22;17892;52.080;9.006;2023-02-25T07:00:19;4.50;99.90
31263;DHT22;17892;52.080;9.006;2023-02-25T07:02:45;4.50;99.90
31263;DHT22;17892;52.080;9.006;2023-02-25T07:05:11;4.50;99.90
31263;DHT22;17892;52.080;9.006;2023-02-25T07:07:36;4.50;99.90
31263;DHT22;17892;52.080;9.006;2023-02-25T07:10:03;4.50;99.90
31263;DHT22;17892;52.080;9.006;2023-02-25T07:12:30;4.50;99.90
31263;DHT22;17892;52.080;9.006;2023-02-25T07:14:57;4.50;99.90
31263;DHT22;17892;52.080;9.006;2023-02-25T07:17:23;4.50;99.90
31263;DHT22;17892;52.080;9.006;2023-02-25T07:19:49;4.60;99.90
31263;DHT22;17892;52.080;9.006;2023-02-25T07:22:15;4.60;99.90
31263;DHT22;17892;52.080;9.006;2023-02-25T07:24:42;4.60;99.90
31263;DHT22;17892;52.080;9.006;2023-02-25T07:27:09;4.60;99.90
31263;DHT22;17892;52.080;9.006;2023-02-25T07:29:37;4.60;99.90
31263;DHT22;17892;52.080;9.006;2023-02-25T07:32:03;4.60;99.90
31263;DHT22;17892;52.080;9.006;2023-02-25T07:34:29;4.70;99.90
31263;DHT22;17892;52.080;9.006;2023-02-25T07:36:55;4.70;99.90
31263;DHT22;17892;52.080;9.006;2023-02-25T07:39:20;4.70;99.90
31263;DHT22;17892;52.080;9.006;2023-02-25T07:41:47;4.70;99.90
31263;DHT22;17892;52.080;9.006;2023-02-25T07:44:13;4.80;99.90
31263;DHT22;17892;52.080;9.006;2023-02-25T07:46:38;4.80;99.90
31263;DHT22;17892;52.080;9.006;2023-02-25T07:49:05;4.80;99.90
31263;DHT22;17892;52.080;9.006;2023-02-25T07:51:31;4.90;99.90
31263;DHT22;17892;52.080;9.006;2023-02-25T07:53:58;4.90;99.90
31263;DHT22;17892;52.080;9.006;2023-02-25T07:56:26;5.00;99.90
31263;DHT22;17892;52.080;9.006;2023-02-25T07:58:53;5.10;99.90
31263;DHT22;17892;52.080;9.006;2023-02-25T08:01:22;5.00;99.90
31263;DHT22;17892;52.080;9.006;2023-02-25T08:03:58;5.10;99.90
31263;DHT22;17892;52.080;9.006;2023-02-25T08:06:25;5.10;99.90
31263;DHT22;17892;52.080;9.006;2023-02-25T08:08:51;5.20;99.90
31263;DHT22;17892;52.080;9.006;2023-02-25T08:11:20;5.20;99.90
31263;DHT22;17892;52.080;9.006;2023-02-25T08:13:47;5.20;99.90
31263;DHT22;17892;52.080;9.006;2023-02-25T08:16:15;5.30;99.90
31263;DHT22;17892;52.080;9.006;2023-02-25T08:18:42;5.20;99.90
31263;DHT22;17892;52.080;9.006;2023-02-25T08:21:10;5.30;99.90
31263;DHT22;17892;52.080;9.006;2023-02-25T08:23:37;5.20;99.90
31263;DHT22;17892;52.080;9.006;2023-02-25T08:26:04;5.30;99.90
31263;DHT22;17892;52.080;9.006;2023-02-25T08:28:31;5.30;99.90
31263;DHT22;17892;52.080;9.006;2023-02-25T08:30:58;5.30;99.90
31263;DHT22;17892;52.080;9.006;2023-02-25T08:33:25;5.40;99.90
31263;DHT22;17892;52.080;9.006;2023-02-25T08:35:51;5.30;99.90
31263;DHT22;17892;52.080;9.006;2023-02-25T08:38:17;5.30;99.90
31263;DHT22;17892;52.080;9.006;2023-02-25T08:40:43;5.30;99.90
31263;DHT22;17892;52.080;9.006;2023-02-25T08:43:10;5.30;99.90
31263;DHT22;17892;52.080;9.006;2023-02-25T08:45:37;5.30;99.90
31263;DHT22;17892;52.080;9.006;2023-02-25T08:48:03;5.40;99.90
31263;DHT22;17892;52.080;9.006;2023-02-25T08:50:29;5.40;99.90
31263;DHT22;17892;52.080;9.006;2023-02-25T08:52:55;5.50;99.90
31263;DHT22;17892;52.080;9.006;2023-02-25T08:55:22;5.50;99.90
31263;DHT22;17892;52.080;9.006;2023-02-25T08:57:49;5.60;99.90
31263;DHT22;17892;52.080;9.006;2023-02-25T09:00:16;5.60;99.90
31263;DHT22;17892;52.080;9.006;2023-02-25T09:02:42;5.60;99.90
31263;DHT22;17892;52.080;9.006;2023-02-25T09:05:09;5.60;99.90
31263;DHT22;17892;52.080;9.006;2023-02-25T09:07:35;5.60;99.90
31263;DHT22;17892;52.080;9.006;2023-02-25T09:10:01;5.40;99.90
31263;DHT22;17892;52.080;9.006;2023-02-25T09:12:31;5.20;99.90
31263;DHT22;17892;52.080;9.006;2023-02-25T09:14:56;5.10;99.90
31263;DHT22;17892;52.080;9.006;2023-02-25T09:17:22;5.00;99.90
31263;DHT22;17892;52.080;9.006;2023-02-25T09:19:48;5.00;99.90
31263;DHT22;17892;52.080;9.006;2023-02-25T09:22:13;5.00;99.90
31263;DHT22;17892;52.080;9.006;2023-02-25T09:24:39;4.90;99.90
31263;DHT22;17892;52.080;9.006;2023-02-25T09:27:05;5.00;99.90
31263;DHT22;17892;52.080;9.006;2023-02-25T09:29:37;5.00;99.90
31263;DHT22;17892;52.080;9.006;2023-02-25T09:32:05;5.10;99.90
31263;DHT22;17892;52.080;9.006;2023-02-25T09:34:31;5.20;99.90
31263;DHT22;17892;52.080;9.006;2023-02-25T09:37:03;5.20;99.90
31263;DHT22;17892;52.080;9.006;2023-02-25T09:39:29;5.20;99.90
31263;DHT22;17892;52.080;9.006;2023-02-25T09:45:15;5.20;99.90
31263;DHT22;17892;52.080;9.006;2023-02-25T09:47:51;5.20;99.90
31263;DHT22;17892;52.080;9.006;2023-02-25T09:50:31;5.00;99.90
31263;DHT22;17892;52.080;9.006;2023-02-25T09:53:16;4.90;99.90
31263;DHT22;17892;52.080;9.006;2023-02-25T09:55:48;4.80;99.90
31263;DHT22;17892;52.080;9.006;2023-02-25T09:58:48;4.80;99.90
31263;DHT22;17892;52.080;9.006;2023-02-25T10:01:34;5.00;99.90
31263;DHT22;17892;52.080;9.006;2023-02-25T10:06:42;5.50;99.90
31263;DHT22;17892;52.080;9.006;2023-02-25T10:18:08;5.60;99.90
31263;DHT22;17892;52.080;9.006;2023-02-25T10:21:07;5.60;99.90
31263;DHT22;17892;52.080;9.006;2023-02-25T10:26:35;5.50;99.90
31263;DHT22;17892;52.080;9.006;2023-02-25T10:29:11;5.50;99.90
31263;DHT22;17892;52.080;9.006;2023-02-25T10:31:44;5.50;99.90
31263;DHT22;17892;52.080;9.006;2023-02-25T10:34:22;5.50;99.90
31263;DHT22;17892;52.080;9.006;2023-02-25T10:36:55;5.50;99.90
31263;DHT22;17892;52.080;9.006;2023-02-25T10:39:23;5.50;99.90
31263;DHT22;17892;52.080;9.006;2023-02-25T10:41:50;5.50;99.90
31263;DHT22;17892;52.080;9.006;2023-02-25T10:44:16;5.50;99.90
31263;DHT22;17892;52.080;9.006;2023-02-25T10:47:08;5.60;99.90
31263;DHT22;17892;52.080;9.006;2023-02-25T10:49:39;5.60;99.90
31263;DHT22;17892;52.080;9.006;2023-02-25T10:52:16;5.80;99.90
31263;DHT22;17892;52.080;9.006;2023-02-25T10:54:51;6.20;99.90
31263;DHT22;17892;52.080;9.006;2023-02-25T10:57:24;6.40;99.90
31263;DHT22;17892;52.080;9.006;2023-02-25T10:59:59;6.50;99.90
31263;DHT22;17892;52.080;9.006;2023-02-25T11:02:28;6.50;99.90
31263;DHT22;17892;52.080;9.006;2023-02-25T11:04:56;6.40;99.90
31263;DHT22;17892;52.080;9.006;2023-02-25T11:07:42;6.30;99.90
31263;DHT22;17892;52.080;9.006;2023-02-25T11:12:46;6.00;99.90
31263;DHT22;17892;52.080;9.006;2023-02-25T11:17:56;5.80;99.90
31263;DHT22;17892;52.080;9.006;2023-02-25T11:20:26;5.70;99.90
31263;DHT22;17892;52.080;9.006;2023-02-25T11:22:55;5.70;99.90
31263;DHT22;17892;52.080;9.006;2023-02-25T11:25:39;5.70;99.90
31263;DHT22;17892;52.080;9.006;2023-02-25T11:28:30;5.60;99.90
31263;DHT22;17892;52.080;9.006;2023-02-25T11:31:08;5.60;99.90
31263;DHT22;17892;52.080;9.006;2023-02-25T11:33:50;5.60;99.90
31263;DHT22;17892;52.080;9.006;2023-02-25T11:36:22;5.50;99.90
31263;DHT22;17892;52.080;9.006;2023-02-25T11:39:20;5.50;99.90
31263;DHT22;17892;52.080;9.006;2023-02-25T11:41:49;5.50;99.90
31263;DHT22;17892;52.080;9.006;2023-02-25T11:44:20;5.50;99.90
31263;DHT22;17892;52.080;9.006;2023-02-25T11:47:22;5.50;99.90
31263;DHT22;17892;52.080;9.006;2023-02-25T11:50:22;5.50;99.90
31263;DHT22;17892;52.080;9.006;2023-02-25T11:53:26;5.50;99.90
31263;DHT22;17892;52.080;9.006;2023-02-25T11:56:35;5.50;99.90
31263;DHT22;17892;52.080;9.006;2023-02-25T11:59:49;5.50;99.90
31263;DHT22;17892;52.080;9.006;2023-02-25T12:06:00;5.50;99.90
31263;DHT22;17892;52.080;9.006;2023-02-25T12:14:32;5.40;99.90
31263;DHT22;17892;52.080;9.006;2023-02-25T12:26:57;5.40;99.90
31263;DHT22;17892;52.080;9.006;2023-02-25T12:30:01;5.40;99.70
31263;DHT22;17892;52.080;9.006;2023-02-25T12:32:38;5.30;99.90
31263;DHT22;17892;52.080;9.006;2023-02-25T12:35:42;5.30;99.90
31263;DHT22;17892;52.080;9.006;2023-02-25T12:38:54;5.30;97.60
31263;DHT22;17892;52.080;9.006;2023-02-25T12:41:46;5.30;99.90
31263;DHT22;17892;52.080;9.006;2023-02-25T13:15:17;5.70;99.90
31263;DHT22;17892;52.080;9.006;2023-02-25T13:23:34;6.60;99.90
31263;DHT22;17892;52.080;9.006;2023-02-25T13:29:35;7.40;99.90
31263;DHT22;17892;52.080;9.006;2023-02-25T13:32:20;7.50;99.90
31263;DHT22;17892;52.080;9.006;2023-02-25T13:41:10;7.20;99.90
31263;DHT22;17892;52.080;9.006;2023-02-25T13:55:21;6.20;99.70
31263;DHT22;17892;52.080;9.006;2023-02-25T13:58:15;6.10;99.90
31263;DHT22;17892;52.080;9.006;2023-02-25T14:10:32;6.00;99.90
31263;DHT22;17892;52.080;9.006;2023-02-25T14:16:32;5.90;99.90
31263;DHT22;17892;52.080;9.006;2023-02-25T14:19:33;5.90;99.90
31263;DHT22;17892;52.080;9.006;2023-02-25T14:22:52;5.80;99.90
31263;DHT22;17892;52.080;9.006;2023-02-25T14:25:29;5.80;99.90
31263;DHT22;17892;52.080;9.006;2023-02-25T14:31:30;5.80;99.90
31263;DHT22;17892;52.080;9.006;2023-02-25T15:04:18;5.50;99.90
31263;DHT22;17892;52.080;9.006;2023-02-25T15:07:14;5.50;99.90
31263;DHT22;17892;52.080;9.006;2023-02-25T15:22:26;6.00;99.90
31263;DHT22;17892;52.080;9.006;2023-02-25T15:27:45;6.30;99.90
31263;DHT22;17892;52.080;9.006;2023-02-25T15:30:20;6.40;99.90
31263;DHT22;17892;52.080;9.006;2023-02-25T15:33:11;6.50;99.90
31263;DHT22;17892;52.080;9.006;2023-02-25T15:38:19;6.40;99.90
31263;DHT22;17892;52.080;9.006;2023-02-25T15:40:50;6.40;99.90
31263;DHT22;17892;52.080;9.006;2023-02-25T15:43:29;6.50;99.90
31263;DHT22;17892;52.080;9.006;2023-02-25T15:48:33;6.50;99.90
31263;DHT22;17892;52.080;9.006;2023-02-25T15:51:01;6.50;99.90
31263;DHT22;17892;52.080;9.006;2023-02-25T16:09:27;6.30;99.90
31263;DHT22;17892;52.080;9.006;2023-02-25T16:11:51;6.40;99.90
31263;DHT22;17892;52.080;9.006;2023-02-25T16:14:31;6.50;99.90
31263;DHT22;17892;52.080;9.006;2023-02-25T16:17:07;6.60;99.90
31263;DHT22;17892;52.080;9.006;2023-02-25T16:19:40;6.50;99.90
31263;DHT22;17892;52.080;9.006;2023-02-25T16:22:13;6.50;99.90
31263;DHT22;17892;52.080;9.006;2023-02-25T16:24:49;6.40;99.90
31263;DHT22;17892;52.080;9.006;2023-02-25T16:30:11;6.00;99.80
31263;DHT22;17892;52.080;9.006;2023-02-25T16:35:39;5.70;99.90
31263;DHT22;17892;52.080;9.006;2023-02-25T16:40:53;5.30;99.90
31263;DHT22;17892;52.080;9.006;2023-02-25T16:43:28;5.20;99.90
31263;DHT22;17892;52.080;9.006;2023-02-25T16:45:57;5.10;99.90
31263;DHT22;17892;52.080;9.006;2023-02-25T16:48:31;4.90;99.90
31263;DHT22;17892;52.080;9.006;2023-02-25T16:51:10;4.80;99.90
31263;DHT22;17892;52.080;9.006;2023-02-25T16:53:43;4.70;99.90
31263;DHT22;17892;52.080;9.006;2023-02-25T16:56:19;4.60;99.90
31263;DHT22;17892;52.080;9.006;2023-02-25T17:01:39;4.40;99.90
31263;DHT22;17892;52.080;9.006;2023-02-25T17:04:15;4.30;99.90
31263;DHT22;17892;52.080;9.006;2023-02-25T17:09:51;4.10;99.90
31263;DHT22;17892;52.080;9.006;2023-02-25T17:14:52;4.00;99.90
31263;DHT22;17892;52.080;9.006;2023-02-25T17:17:28;3.90;99.90
31263;DHT22;17892;52.080;9.006;2023-02-25T17:19:58;3.90;99.90
31263;DHT22;17892;52.080;9.006;2023-02-25T17:22:26;3.80;99.90
31263;DHT22;17892;52.080;9.006;2023-02-25T17:24:53;3.70;99.90
31263;DHT22;17892;52.080;9.006;2023-02-25T17:27:20;3.70;99.90
31263;DHT22;17892;52.080;9.006;2023-02-25T17:29:47;3.60;99.90
31263;DHT22;17892;52.080;9.006;2023-02-25T17:32:23;3.50;99.90
31263;DHT22;17892;52.080;9.006;2023-02-25T17:34:54;3.50;99.90
31263;DHT22;17892;52.080;9.006;2023-02-25T17:37:22;3.40;99.90
31263;DHT22;17892;52.080;9.006;2023-02-25T17:39:50;3.40;99.90
31263;DHT22;17892;52.080;9.006;2023-02-25T17:44:54;3.20;99.90
31263;DHT22;17892;52.080;9.006;2023-02-25T17:47:26;3.20;99.90
31263;DHT22;17892;52.080;9.006;2023-02-25T17:49:54;3.10;99.90
31263;DHT22;17892;52.080;9.006;2023-02-25T17:52:22;3.00;99.90
31263;DHT22;17892;52.080;9.006;2023-02-25T17:54:55;3.00;99.90
31263;DHT22;17892;52.080;9.006;2023-02-25T17:57:24;2.90;99.90
31263;DHT22;17892;52.080;9.006;2023-02-25T17:59:57;2.80;99.90
31263;DHT22;17892;52.080;9.006;2023-02-25T18:02:43;2.70;99.90
31263;DHT22;17892;52.080;9.006;2023-02-25T18:05:20;2.60;99.90
31263;DHT22;17892;52.080;9.006;2023-02-25T18:12:56;2.40;99.90
31263;DHT22;17892;52.080;9.006;2023-02-25T18:15:31;2.30;99.90
31263;DHT22;17892;52.080;9.006;2023-02-25T18:18:01;2.20;99.90
31263;DHT22;17892;52.080;9.006;2023-02-25T18:20:40;2.10;99.90
31263;DHT22;17892;52.080;9.006;2023-02-25T18:23:19;2.00;99.90
31263;DHT22;17892;52.080;9.006;2023-02-25T18:28:34;1.90;99.90
31263;DHT22;17892;52.080;9.006;2023-02-25T18:30:59;1.80;99.90
31263;DHT22;17892;52.080;9.006;2023-02-25T18:33:25;1.80;99.90
31263;DHT22;17892;52.080;9.006;2023-02-25T18:35:51;1.70;99.90
31263;DHT22;17892;52.080;9.006;2023-02-25T18:38:19;1.60;99.90
31263;DHT22;17892;52.080;9.006;2023-02-25T18:40:47;1.60;99.90
31263;DHT22;17892;52.080;9.006;2023-02-25T18:43:16;1.50;99.90
31263;DHT22;17892;52.080;9.006;2023-02-25T18:45:43;1.50;99.90
31263;DHT22;17892;52.080;9.006;2023-02-25T18:48:09;1.40;99.90
31263;DHT22;17892;52.080;9.006;2023-02-25T18:50:37;1.40;99.90
31263;DHT22;17892;52.080;9.006;2023-02-25T18:53:10;1.40;99.90
31263;DHT22;17892;52.080;9.006;2023-02-25T18:55:38;1.40;99.90
31263;DHT22;17892;52.080;9.006;2023-02-25T18:58:04;1.30;99.90
31263;DHT22;17892;52.080;9.006;2023-02-25T19:00:29;1.30;99.90
31263;DHT22;17892;52.080;9.006;2023-02-25T19:03:03;1.30;99.90
31263;DHT22;17892;52.080;9.006;2023-02-25T19:05:29;1.30;99.90
31263;DHT22;17892;52.080;9.006;2023-02-25T19:07:56;1.20;99.90
31263;DHT22;17892;52.080;9.006;2023-02-25T19:10:27;1.20;99.90
31263;DHT22;17892;52.080;9.006;2023-02-25T19:13:03;1.20;99.90
31263;DHT22;17892;52.080;9.006;2023-02-25T19:15:31;1.20;99.90
31263;DHT22;17892;52.080;9.006;2023-02-25T19:17:57;1.10;99.90
31263;DHT22;17892;52.080;9.006;2023-02-25T19:20:22;1.10;99.90
31263;DHT22;17892;52.080;9.006;2023-02-25T19:22:50;1.10;99.90
31263;DHT22;17892;52.080;9.006;2023-02-25T19:25:26;1.10;99.90
31263;DHT22;17892;52.080;9.006;2023-02-25T19:27:54;1.10;99.90
31263;DHT22;17892;52.080;9.006;2023-02-25T19:30:27;1.10;99.90
31263;DHT22;17892;52.080;9.006;2023-02-25T19:32:55;1.10;99.90
31263;DHT22;17892;52.080;9.006;2023-02-25T19:35:28;1.20;99.90
31263;DHT22;17892;52.080;9.006;2023-02-25T19:37:56;1.20;99.90
31263;DHT22;17892;52.080;9.006;2023-02-25T19:40:22;1.30;99.90
31263;DHT22;17892;52.080;9.006;2023-02-25T19:42:49;1.40;99.90
31263;DHT22;17892;52.080;9.006;2023-02-25T19:45:18;1.50;99.90
31263;DHT22;17892;52.080;9.006;2023-02-25T19:47:46;1.60;99.90
31263;DHT22;17892;52.080;9.006;2023-02-25T19:50:13;1.70;99.90
31263;DHT22;17892;52.080;9.006;2023-02-25T19:52:40;1.80;99.90